^^
Datos históricos de la estación: Murcia-Puente Tocinos
Diario Informe para Abril 24, 2019 Unidades:  Ingés    Métrico   Ambas
Diario Semanal Mensual Anual
  Máxima: Mínima: Promedio:
Temperatura: 92.7 °F 65.8 °F 77 °F
Punto de rocio: 64.6 °F 46.8 °F 59.9 °F
Humedad: 81% 21% 59%
Velocidad viento: 9.2mph 0mph 3.8mph
Racha viento: 21mph - -
Viento- - SSO
Presión: 30.1 in 29.9 in -
Precipitación: 0 in    
 
 
Tabla de datos para Abril 24, 2019
Hora Temperatura Punto de rocio Presión Viento Velocidad viento Racha viento Humedad Intensidad lluvia(por hora) Nubes
00:04 72 °F 64.6 °F 30.1 in NO 1.4 mph 3 mph 78% 0 in
00:09 71.8 °F 64.6 °F 30.1 in NO 1.1 mph 2.4 mph 78% 0 in
00:14 71.8 °F 64.6 °F 30.1 in Calm   3 mph 78% 0 in
00:19 71.6 °F 64.4 °F 30.1 in NO 0.2 mph 2.3 mph 78% 0 in
00:24 71.6 °F 64.4 °F 30.1 in NO 1.4 mph 1 mph 78% 0 in
00:29 71.4 °F 64.6 °F 30.1 in NO 1.1 mph   78.9% 0 in
00:34 71.4 °F 64.6 °F 30.1 in Calm     79% 0 in
00:39 71.2 °F 64.4 °F 30.1 in Calm     79% 0 in
00:44 71.2 °F 64.4 °F 30.1 in Calm   1.4 mph 79% 0 in
00:49 71.2 °F 64.4 °F 30.1 in Calm   2.3 mph 79% 0 in
00:54 71.2 °F 64.4 °F 30.1 in Calm   2.4 mph 79% 0 in
00:59 71.2 °F 64.2 °F 30.1 in SE 0.4 mph 5.9 mph 78.5% 0 in
01:04 70.9 °F 63.3 °F 30.1 in SSE 1.8 mph 6 mph 77.2% 0 in
01:09 70.5 °F 62.6 °F 30.1 in Sur 2.1 mph 5.2 mph 76% 0 in
01:14 70.5 °F 62.2 °F 30.1 in SSE 3.1 mph 5 mph 75.2% 0 in
01:19 70.5 °F 61.9 °F 30.1 in Sur 3.1 mph 5 mph 74.1% 0 in
01:24 70.5 °F 61.9 °F 30.1 in Sur 3.1 mph 5 mph 74% 0 in
01:29 70.7 °F 62.1 °F 30.1 in SSE 2.9 mph 5 mph 74% 0 in
01:34 70.9 °F 62.2 °F 30.1 in SSE 2 mph 3 mph 74% 0 in
01:39 70.9 °F 62.4 °F 30.1 in SSE 1.6 mph   74.8% 0 in
01:44 70.7 °F 62.4 °F 30.1 in Calm   2.9 mph 75% 0 in
01:49 70.5 °F 62.2 °F 30.1 in SSE 0.3 mph 3 mph 75% 0 in
01:54 70.5 °F 62.2 °F 30.1 in SSE 1.4 mph 3.5 mph 75% 0 in
01:59 70.3 °F 62.1 °F 30.1 in SSE 1.4 mph 3 mph 75% 0 in
02:04 70.3 °F 62.1 °F 30.1 in SSE 1.4 mph 2.4 mph 75% 0 in
02:09 70.3 °F 62.1 °F 30.1 in SSE 1.4 mph 3.6 mph 75% 0 in
02:14 70.2 °F 61.9 °F 30.1 in SSE 1.4 mph 4 mph 75% 0 in
02:19 70.2 °F 61.9 °F 30.1 in SSE 1.5 mph 3.5 mph 75% 0 in
02:24 70.2 °F 61.5 °F 30.1 in SE 1.8 mph 4.6 mph 74.2% 0 in
02:29 70.2 °F 61.5 °F 30.1 in SE 1.9 mph 5 mph 74% 0 in
02:34 70.2 °F 61.9 °F 30.1 in SSE 2 mph 5 mph 75% 0 in
02:39 70 °F 61.7 °F 30.1 in SSE 2.2 mph 5 mph 75% 0 in
02:44 70 °F 61.7 °F 30.1 in Sur 3.1 mph 5.2 mph 75% 0 in
02:49 70 °F 61.7 °F 30.1 in Sur 3.1 mph 5.2 mph 75% 0 in
02:54 70 °F 61.7 °F 30.1 in SSO 3.1 mph 5.2 mph 75% 0 in
02:59 69.8 °F 61.5 °F 30.1 in SSO 3.3 mph 6.9 mph 75% 0 in
03:04 69.8 °F 61.5 °F 30.1 in SSO 4 mph 7 mph 75% 0 in
03:09 69.8 °F 61.5 °F 30.1 in SSO 4 mph 6.9 mph 75% 0 in
03:14 69.8 °F 61.5 °F 30.1 in SSO 4.3 mph 7 mph 75% 0 in
03:19 69.6 °F 61.3 °F 30.1 in SSO 4.4 mph 7 mph 75.1% 0 in
03:24 69.6 °F 61.7 °F 30 in SSO 4.7 mph 7 mph 76% 0 in
03:29 69.6 °F 61.7 °F 30 in SSO 4.7 mph 8.1 mph 76% 0 in
03:34 69.6 °F 61.7 °F 30 in SO 4.7 mph 8.1 mph 76% 0 in
03:39 69.6 °F 61.7 °F 30 in SO 4.5 mph 8 mph 76% 0 in
03:44 69.4 °F 61.5 °F 30 in SO 4 mph 6.9 mph 76% 0 in
03:49 69.4 °F 61.5 °F 30 in SO 4.1 mph 8.1 mph 76% 0 in
03:54 69.4 °F 61.3 °F 30 in SO 4.3 mph 8 mph 75.5% 0 in
03:59 69.4 °F 61.2 °F 30 in SSO 4.1 mph 6.2 mph 75% 0 in
04:04 69.4 °F 61.2 °F 30 in SO 3.6 mph 6.2 mph 75% 0 in
04:09 69.4 °F 61.3 °F 30 in SO 3.6 mph 6 mph 75.6% 0 in
04:14 69.4 °F 61.5 °F 30 in SO 3.6 mph 5.2 mph 76% 0 in
04:19 69.3 °F 61.3 °F 30 in SO 3.5 mph 5 mph 76% 0 in
04:24 69.3 °F 61.3 °F 30 in OSO 3.1 mph 5 mph 76% 0 in
04:29 69.1 °F 61.2 °F 30 in SO 3.1 mph 5.9 mph 76% 0 in
04:34 68.9 °F 61.2 °F 30 in SO 3.1 mph 6.2 mph 76% 0 in
04:39 68.7 °F 61 °F 30 in OSO 3.2 mph 6 mph 76% 0 in
04:44 68.7 °F 60.8 °F 30 in OSO 3.6 mph 6.2 mph 76% 0 in
04:49 68.7 °F 60.8 °F 30 in OSO 3.7 mph 6.9 mph 76% 0 in
04:54 68.5 °F 60.6 °F 30 in OSO 4.3 mph 7 mph 76% 0 in
04:59 68.5 °F 60.6 °F 30 in SO 3.9 mph 5 mph 76% 0 in
05:04 68.5 °F 60.6 °F 30 in OSO 2.4 mph 5.2 mph 76% 0 in
05:09 68.5 °F 60.6 °F 30 in OSO 2.5 mph 5 mph 76% 0 in
05:14 68.5 °F 60.6 °F 30 in OSO 3.1 mph 5 mph 76% 0 in
05:19 68.5 °F 60.6 °F 30 in OSO 3 mph 5 mph 76% 0 in
05:24 68.5 °F 61 °F 30 in OSO 2.4 mph 5 mph 76.9% 0 in
05:29 68.4 °F 61 °F 30 in SO 2.5 mph 5.2 mph 77% 0 in
05:34 68.4 °F 61 °F 30 in SO 2.9 mph 5.9 mph 77% 0 in
05:39 68.4 °F 61 °F 30 in SSO 3 mph 6.2 mph 77% 0 in
05:44 68.4 °F 60.8 °F 30 in SO 3.6 mph 6.2 mph 76.9% 0 in
05:49 68.4 °F 60.4 °F 30 in SO 3.6 mph 6 mph 76% 0 in
05:54 68.2 °F 60.6 °F 30 in SO 3.6 mph 6.2 mph 76.7% 0 in
05:59 68.2 °F 60.6 °F 30 in SO 3.5 mph 6 mph 77% 0 in
06:04 68 °F 60.6 °F 30 in OSO 3.1 mph 5.2 mph 77% 0 in
06:09 68 °F 60.4 °F 30 in OSO 3 mph 5 mph 77% 0 in
06:14 67.8 °F 60.3 °F 30 in Sur 2.4 mph 5 mph 77% 0 in
06:19 67.8 °F 60.4 °F 30 in Sur 2.2 mph 3 mph 77.5% 0 in
06:24 67.6 °F 60.4 °F 30 in SSO 1.4 mph 3.6 mph 78% 0 in
06:29 67.6 °F 60.6 °F 30 in OSO 1.5 mph 4 mph 78.5% 0 in
06:34 67.5 °F 60.6 °F 30 in OSO 1.8 mph 4 mph 79% 0 in
06:39 67.3 °F 60.4 °F 30 in OSO 1.9 mph 5 mph 79% 0 in
06:44 67.3 °F 60.4 °F 30 in SO 2.4 mph 5 mph 79% 0 in
06:49 67.1 °F 60.4 °F 30 in SO 2.5 mph 5 mph 79% 0 in
06:54 67.3 °F 60.4 °F 30 in SO 3.1 mph 5.9 mph 79% 0 in
06:59 67.3 °F 60.4 °F 30 in SO 3.1 mph 6.2 mph 78.7% 0 in
07:04 67.3 °F 60.3 °F 30 in OSO 3.1 mph 6 mph 78% 0 in
07:09 67.5 °F 60.4 °F 30 in OSO 3 mph 5.9 mph 78% 0 in
07:14 67.5 °F 60.4 °F 30 in OSO 2.9 mph 6 mph 78% 0 in
07:19 67.5 °F 60.4 °F 30 in ONO 2.8 mph 5 mph 78% 0 in
07:24 67.3 °F 60.4 °F 30 in ONO 2.4 mph 4 mph 78.6% 0 in
07:29 67.1 °F 60.4 °F 30 in ONO 2.2 mph 3 mph 79% 0 in
07:34 66.9 °F 60.3 °F 30 in ONO 1.4 mph 4.6 mph 79.4% 0 in
07:39 66.7 °F 60.4 °F 30 in ONO 1.5 mph 5 mph 80% 0 in
07:44 66.7 °F 60.3 °F 30 in OSO 1.8 mph 4.7 mph 79.8% 0 in
07:49 66.7 °F 60.1 °F 30 in SSE 1.9 mph 5 mph 79.1% 0 in
07:54 66.7 °F 60.4 °F 30 in ESE 2.4 mph 5 mph 80% 0 in
07:59 66.6 °F 60.1 °F 30 in SE 2.5 mph 5.2 mph 80% 0 in
08:04 66.2 °F 60.1 °F 30 in SSE 2.9 mph 6.9 mph 80.5% 0 in
08:09 66 °F 59.9 °F 30 in SSE 3.2 mph 7 mph 81% 0 in
08:14 65.8 °F 59.7 °F 30 in SSE 4.3 mph 7 mph 81% 0 in
08:19 65.8 °F 59.7 °F 30 in SSE 4.3 mph 7 mph 81% 0 in
08:24 65.8 °F 59.7 °F 30 in SSE 4.3 mph 6.2 mph 81% 0 in
08:29 65.8 °F 59.7 °F 30 in SSE 4.2 mph 6.2 mph 81% 0 in
08:34 65.8 °F 59.7 °F 30 in Sur 4 mph 6 mph 81% 0 in
08:39 65.8 °F 59.7 °F 30 in Sur 3.8 mph 5 mph 81% 0 in
08:44 66 °F 60.1 °F 30 in SO 3.1 mph 5 mph 81% 0 in
08:49 66.4 °F 60.4 °F 30 in SSO 3 mph 5 mph 80.8% 0 in
08:54 66.7 °F 60.3 °F 30 in SO 2.9 mph 5.9 mph 79.5% 0 in
08:59 67.3 °F 60.4 °F 30 in OSO 2.9 mph 6 mph 78.5% 0 in
09:04 67.6 °F 60.4 °F 30 in OSO 3.1 mph 6.2 mph 77.9% 0 in
09:09 68 °F 60.4 °F 30 in Oeste 3.3 mph 8.1 mph 77% 0 in
09:14 68.2 °F 60.6 °F 30 in OSO 4 mph 8.1 mph 76.8% 0 in
09:19 68.4 °F 60.4 °F 30 in OSO 4.2 mph 8.1 mph 76% 0 in
09:24 68.4 °F 60.6 °F 30 in OSO 4.7 mph 9.7 mph 76% 0 in
09:29 68.5 °F 60.8 °F 30 in OSO 4.7 mph 10 mph 76% 0 in
09:34 69.1 °F 60.8 °F 30 in OSO 4.7 mph 8.5 mph 75% 0 in
09:39 69.3 °F 61 °F 30 in OSO 4.7 mph 9 mph 75% 0 in
09:44 69.6 °F 60.8 °F 30 in OSO 4.7 mph 8.5 mph 73.5% 0 in
09:49 70 °F 60.8 °F 30 in OSO 4.8 mph 9 mph 73.1% 0 in
09:54 70.2 °F 60.8 °F 30 in SO 5.2 mph 7 mph 72.3% 0 in
09:59 70.5 °F 60.6 °F 30 in SO 4.9 mph 7.4 mph 71.1% 0 in
10:04 70.9 °F 60.3 °F 30.1 in OSO 4 mph 8.1 mph 69.3% 0 in
10:09 71.2 °F 60.4 °F 30.1 in SO 4.1 mph 8.1 mph 68.8% 0 in
10:14 71.4 °F 60.3 °F 30.1 in SO 4.3 mph 7.4 mph 67.9% 0 in
10:19 71.4 °F 60.3 °F 30.1 in SSO 4.5 mph 8.1 mph 68% 0 in
10:24 71.8 °F 60.6 °F 30 in SO 5.2 mph 8 mph 68% 0 in
10:29 72 °F 61.3 °F 30 in Sur 5 mph 7.4 mph 69% 0 in
10:34 72.1 °F 61 °F 30.1 in SSO 4 mph 8.5 mph 68.1% 0 in
10:39 72.1 °F 61 °F 30.1 in SSO 4.3 mph 9.2 mph 68% 0 in
10:44 72.1 °F 60.8 °F 30.1 in SSO 5.4 mph 9.2 mph 67.3% 0 in
10:49 72.5 °F 60.8 °F 30.1 in SO 5.4 mph 10 mph 66.7% 0 in
10:54 72.9 °F 60.6 °F 30.1 in OSO 5.4 mph 10 mph 65.6% 0 in
10:59 73.4 °F 60.4 °F 30.1 in SO 5.3 mph 8.1 mph 63.8% 0 in
11:04 73.8 °F 60.3 °F 30.1 in SO 5.2 mph 8.1 mph 62.9% 0 in
11:09 74.1 °F 59.7 °F 30.1 in Oeste 5.2 mph 8.5 mph 60.8% 0 in
11:14 74.7 °F 59.5 °F 30.1 in Oeste 5.2 mph 9 mph 59.4% 0 in
11:19 74.8 °F 59.5 °F 30.1 in OSO 5 mph 8 mph 58.8% 0 in
11:24 75.4 °F 59.4 °F 30.1 in OSO 4.3 mph 7.6 mph 57.8% 0 in
11:29 75.7 °F 59.4 °F 30.1 in OSO 4.4 mph 8.1 mph 56.8% 0 in
11:34 76.3 °F 59.4 °F 30.1 in OSO 4.7 mph 8.1 mph 56% 0 in
11:39 76.5 °F 59.4 °F 30.1 in OSO 4.7 mph 8.1 mph 55.3% 0 in
11:44 76.6 °F 59.5 °F 30.1 in OSO 4.7 mph 8.1 mph 55.7% 0 in
11:49 76.6 °F 59.7 °F 30.1 in Sur 4.7 mph 8 mph 55.8% 0 in
11:54 77 °F 60.1 °F 30 in SSO 4.7 mph 8.7 mph 55.9% 0 in
11:59 77.4 °F 59.9 °F 30 in SO 4.7 mph 9.2 mph 54.9% 0 in
12:04 77.5 °F 60.1 °F 30 in SO 4.7 mph 8.5 mph 54.9% 0 in
12:09 77.9 °F 60.4 °F 30 in SSO 4.6 mph 9 mph 55% 0 in
12:14 78.3 °F 60.4 °F 30 in SO 4.3 mph 8 mph 54.6% 0 in
12:19 78.4 °F 60.4 °F 30 in OSO 4.3 mph 8.1 mph 53.9% 0 in
12:24 78.8 °F 60.6 °F 30 in SO 4.3 mph 8 mph 53.8% 0 in
12:29 79.3 °F 60.3 °F 30 in SO 4.3 mph 9.2 mph 52% 0 in
12:34 79.3 °F 59.2 °F 30 in SO 4.3 mph 9.2 mph 50.1% 0 in
12:39 79.5 °F 59.2 °F 30 in Oeste 4.5 mph 9.2 mph 50% 0 in
12:44 80.1 °F 59 °F 30 in Oeste 5.2 mph 9.2 mph 48.9% 0 in
12:49 80.2 °F 59.2 °F 30 in Oeste 5 mph 9 mph 48.9% 0 in
12:54 80.6 °F 59.5 °F 30 in SO 4.3 mph 8 mph 48.6% 0 in
12:59 81.1 °F 59.2 °F 30 in SSO 4.2 mph 8.1 mph 47.5% 0 in
13:04 81.5 °F 59 °F 30 in SO 4 mph 8.1 mph 46.6% 0 in
13:09 81.7 °F 58.6 °F 30 in SO 4.1 mph 9.2 mph 45.5% 0 in
13:14 82 °F 58.3 °F 30 in SO 4.3 mph 9 mph 44.8% 0 in
13:19 82.2 °F 57.9 °F 30 in SSO 4.2 mph 7 mph 43.8% 0 in
13:24 82.8 °F 58.1 °F 30 in SSO 3.6 mph 8.5 mph 43.2% 0 in
13:29 82.9 °F 57 °F 30 in OSO 3.9 mph 9 mph 41% 0 in
13:34 83.5 °F 56.7 °F 30 in SSO 4.7 mph 9.2 mph 40% 0 in
13:39 83.7 °F 57.2 °F 30 in Sur 4.7 mph 9 mph 40.5% 0 in
13:44 83.8 °F 57 °F 30 in Sur 4.7 mph 8.1 mph 40% 0 in
13:49 84.4 °F 57 °F 30 in Sur 4.8 mph 8.5 mph 39.4% 0 in
13:54 84.7 °F 56.3 °F 30 in Sur 5.2 mph 9.2 mph 38.1% 0 in
13:59 84.9 °F 55.6 °F 30 in SO 5.1 mph 9 mph 36.8% 0 in
14:04 85.1 °F 55.8 °F 30 in SO 4.7 mph 7.4 mph 36.7% 0 in
14:09 85.5 °F 54.3 °F 30 in SSO 4.6 mph 10.4 mph 34.4% 0 in
14:14 85.6 °F 54.3 °F 30 in SSO 4.3 mph 10.4 mph 34.4% 0 in
14:19 85.8 °F 53.4 °F 30 in SO 4.4 mph 9 mph 32.9% 0 in
14:24 86.2 °F 54 °F 30 in SSE 4.7 mph 9 mph 33.2% 0 in
14:29 86.5 °F 54.5 °F 30 in Sur 4.5 mph 8 mph 33.8% 0 in
14:34 86.9 °F 54.3 °F 30 in SSO 3.6 mph 8.5 mph 32.9% 0 in
14:39 87.1 °F 54.5 °F 30 in SSE 3.9 mph 9 mph 33% 0 in
14:44 87.1 °F 54.3 °F 30 in SSE 5.2 mph 9 mph 32.7% 0 in
14:49 87.3 °F 53.8 °F 30 in SSE 5 mph 7 mph 32.1% 0 in
14:54 87.4 °F 54 °F 30 in SE 4 mph 7 mph 32% 0 in
14:59 88 °F 53.4 °F 30 in SSE 3.9 mph 11.5 mph 30.8% 0 in
15:04 88.2 °F 52.5 °F 30 in SSO 3.6 mph 12 mph 29.6% 0 in
15:09 88.2 °F 51.1 °F 30 in Oeste 3.6 mph 6 mph 28% 0 in
15:14 88.3 °F 51.4 °F 30 in Sur 3.6 mph 7.4 mph 28.2% 0 in
15:19 88.5 °F 51.4 °F 30 in Sur 3.7 mph 8.1 mph 28.1% 0 in
15:24 88.9 °F 50.7 °F 29.9 in SSE 4 mph 8 mph 27.2% 0 in
15:29 89.1 °F 50.7 °F 29.9 in SSO 4.1 mph 9.2 mph 27% 0 in
15:34 89.1 °F 50.5 °F 29.9 in SSE 4.3 mph 9 mph 26.8% 0 in
15:39 89.2 °F 50.2 °F 29.9 in SE 4.2 mph 8 mph 26.2% 0 in
15:44 89.4 °F 49.3 °F 29.9 in SO 4 mph 8.1 mph 25.3% 0 in
15:49 89.8 °F 49.3 °F 29.9 in SO 3.8 mph 8 mph 25.1% 0 in
15:54 90.3 °F 49.6 °F 29.9 in Sur 2.9 mph 6.2 mph 24.9% 0 in
15:59 90.9 °F 49.3 °F 29.9 in ONO 2.7 mph 6 mph 24.2% 0 in
16:04 91.2 °F 49.5 °F 29.9 in Oeste 2.4 mph 5 mph 24.1% 0 in
16:09 91.6 °F 48.6 °F 29.9 in NO 2.4 mph 5.9 mph 23% 0 in
16:14 91.6 °F 48.9 °F 29.9 in Oeste 2.4 mph 6 mph 23.3% 0 in
16:19 91.9 °F 48.2 °F 29.9 in SSO 2.4 mph 8.1 mph 22.4% 0 in
16:24 91.9 °F 47.1 °F 29.9 in SO 2.4 mph 8.1 mph 21.6% 0 in
16:29 91.8 °F 47.5 °F 29.9 in SSE 2.7 mph 7 mph 22% 0 in
16:34 91.6 °F 47.7 °F 29.9 in SE 4 mph 7 mph 22.2% 0 in
16:39 91.6 °F 47.5 °F 29.9 in Oeste 3.8 mph 5.8 mph 22.1% 0 in
16:44 91.9 °F 47.5 °F 29.9 in SO 2.9 mph 6 mph 21.8% 0 in
16:49 92.5 °F 46.8 °F 29.9 in ONO 2.8 mph 6 mph 21% 0 in
16:54 92.7 °F 46.9 °F 29.9 in SE 2.4 mph 5 mph 21% 0 in
16:59 92.7 °F 47.1 °F 29.9 in SSO 2.5 mph 7.4 mph 21% 0 in
17:04 92.5 °F 54.7 °F 29.9 in SSE 2.9 mph 12.7 mph 28.5% 0 in
17:09 91.4 °F 58.6 °F 29.9 in SE 3.5 mph 13 mph 33.6% 0 in
17:14 90.5 °F 61.2 °F 29.9 in ESE 5.9 mph 13 mph 37.8% 0 in
17:19 90 °F 61 °F 29.9 in ESE 6.2 mph 13.8 mph 38.2% 0 in
17:24 89.4 °F 61.3 °F 29.9 in ESE 7.4 mph 14 mph 39.3% 0 in
17:29 89.2 °F 60.4 °F 29.9 in SE 7.5 mph 13 mph 38.3% 0 in
17:34 89.4 °F 61.2 °F 29.9 in SE 7.6 mph 10 mph 38.9% 0 in
17:39 89.2 °F 62.2 °F 29.9 in ESE 7.3 mph 12.7 mph 40.7% 0 in
17:44 88.9 °F 62.8 °F 29.9 in ESE 6.4 mph 13.8 mph 41.9% 0 in
17:49 88.3 °F 62.6 °F 29.9 in ESE 6.9 mph 15 mph 42.2% 0 in
17:54 88.3 °F 62.6 °F 29.9 in ESE 8.5 mph 15 mph 42.4% 0 in
17:59 88.2 °F 62.4 °F 29.9 in ESE 8.6 mph 16.8 mph 42.3% 0 in
18:04 88.2 °F 62.6 °F 29.9 in SE 9.2 mph 17 mph 42.8% 0 in
18:09 88.2 °F 62.8 °F 29.9 in SE 8.8 mph 13.8 mph 43% 0 in
18:14 88.2 °F 62.8 °F 29.9 in SE 7.4 mph 14 mph 43.1% 0 in
18:19 88.2 °F 62.8 °F 29.9 in SE 7.5 mph 20.8 mph 43% 0 in
18:24 88 °F 62.6 °F 29.9 in SSE 7.6 mph 21 mph 42.8% 0 in
18:29 87.6 °F 62.2 °F 29.9 in SSE 8 mph 16 mph 42.8% 0 in
18:34 87.4 °F 62.2 °F 29.9 in SSE 9.2 mph 13 mph 43% 0 in
18:39 87.4 °F 62.1 °F 29.9 in SSE 8.8 mph 13.8 mph 42.8% 0 in
18:44 87.4 °F 61.9 °F 29.9 in Sur 7.4 mph 14 mph 42.4% 0 in
18:49 87.4 °F 61.5 °F 29.9 in Sur 7.1 mph 12 mph 42% 0 in
18:54 87.4 °F 61.5 °F 29.9 in SSE 6.4 mph 11.4 mph 42% 0 in
18:59 87.1 °F 61.3 °F 29.9 in Sur 6.3 mph 12 mph 42.1% 0 in
19:04 87.1 °F 61.2 °F 29.9 in Sur 6.2 mph 11.8 mph 42% 0 in
19:09 86.7 °F 60.8 °F 29.9 in Sur 6.3 mph 12.7 mph 41.9% 0 in
19:14 86.5 °F 60.6 °F 29.9 in Sur 6.9 mph 13 mph 42% 0 in
19:19 86.4 °F 61 °F 29.9 in SO 6.8 mph 12 mph 42.7% 0 in
19:24 86 °F 60.8 °F 29.9 in SO 6.2 mph 12 mph 43% 0 in
19:29 85.5 °F 61 °F 29.9 in SO 6.3 mph 12 mph 43.9% 0 in
19:34 84.9 °F 60.6 °F 29.9 in SO 6.9 mph 12 mph 44% 0 in
19:39 84.7 °F 60.8 °F 29.9 in SO 6.5 mph 9 mph 44.6% 0 in
19:44 84.6 °F 60.8 °F 29.9 in SO 5.2 mph 9 mph 45% 0 in
19:49 84.4 °F 60.8 °F 29.9 in OSO 5 mph 8.1 mph 45.2% 0 in
19:54 84 °F 61 °F 29.9 in SO 4.3 mph 9.7 mph 46% 0 in
19:59 83.7 °F 61.2 °F 29.9 in SO 4.3 mph 10 mph 46.7% 0 in
20:04 83.5 °F 61.3 °F 29.9 in SO 4.3 mph 6 mph 47.3% 0 in
20:09 83.1 °F 61.3 °F 29.9 in OSO 4 mph 6 mph 48% 0 in
20:14 82.8 °F 61.3 °F 29.9 in SO 2.9 mph 5 mph 48.2% 0 in
20:19 82.6 °F 61.5 °F 29.9 in SO 2.8 mph 5.2 mph 49% 0 in
20:24 82.2 °F 61.2 °F 29.9 in SO 2.4 mph 5.8 mph 49% 0 in
20:29 82 °F 61.3 °F 29.9 in SO 2.4 mph 6 mph 49.8% 0 in
20:34 81.9 °F 61.3 °F 29.9 in SO 2.4 mph 5 mph 50% 0 in
20:39 81.7 °F 61.2 °F 29.9 in SO 2.2 mph 5 mph 50% 0 in
20:44 81.7 °F 61.2 °F 29.9 in Sur 1.8 mph 4.6 mph 50% 0 in
20:49 81.5 °F 61.3 °F 29.9 in SSO 2.1 mph 5 mph 50.5% 0 in
20:54 81.3 °F 61.5 °F 29.9 in OSO 2.9 mph 5 mph 51% 0 in
20:59 81.1 °F 61.5 °F 29.9 in SO 2.7 mph 4.6 mph 51.3% 0 in
21:04 81 °F 61.7 °F 29.9 in SO 2 mph 5 mph 52% 0 in
21:09 81 °F 61.5 °F 29.9 in OSO 2.2 mph 5.9 mph 52% 0 in
21:14 80.6 °F 61.7 °F 29.9 in OSO 2.9 mph 6 mph 52.7% 0 in
21:19 80.4 °F 61.7 °F 29.9 in OSO 2.8 mph 5.8 mph 53% 0 in
21:24 80.2 °F 61.9 °F 29.9 in Oeste 2.4 mph 6 mph 53.5% 0 in
21:29 80.1 °F 61.9 °F 29.9 in Oeste 2.3 mph 5 mph 54% 0 in
21:34 79.9 °F 61.7 °F 29.9 in SO 2 mph 5.4 mph 54% 0 in
21:39 79.7 °F 61.5 °F 29.9 in OSO 2.1 mph 6 mph 54.1% 0 in
21:44 79.5 °F 61.9 °F 29.9 in SO 2.4 mph 6.2 mph 54.9% 0 in
21:49 79.5 °F 61.9 °F 29.9 in OSO 2.5 mph 6 mph 55% 0 in
21:54 79.3 °F 61.9 °F 29.9 in SO 3.1 mph 6 mph 55.2% 0 in
21:59 79.3 °F 62.2 °F 29.9 in SO 2.8 mph 4 mph 56% 0 in
22:04 79.2 °F 62.1 °F 29.9 in SO 2 mph 5.2 mph 56% 0 in
22:09 79 °F 62.2 °F 29.9 in OSO 2.2 mph 5 mph 56.5% 0 in
22:14 78.8 °F 62.2 °F 29.9 in OSO 2.9 mph 5.9 mph 57% 0 in
22:19 78.4 °F 62.4 °F 29.9 in SO 3.1 mph 6.2 mph 57.8% 0 in
22:24 78.3 °F 62.6 °F 29.9 in SO 4 mph 8.1 mph 58.5% 0 in
22:29 78.1 °F 62.6 °F 29.9 in SO 4.1 mph 8 mph 59% 0 in
22:34 77.9 °F 62.8 °F 29.9 in SO 4.3 mph 7.4 mph 59.4% 0 in
22:39 77.9 °F 62.8 °F 29.9 in SO 4.2 mph 7 mph 60% 0 in
22:44 77.7 °F 62.8 °F 29.9 in SO 4 mph 6 mph 60% 0 in
22:49 77.7 °F 62.8 °F 29.9 in SO 3.9 mph 6 mph 60% 0 in
22:54 77.7 °F 62.8 °F 29.9 in SO 3.6 mph 6.2 mph 60% 0 in
22:59 77.7 °F 62.8 °F 29.9 in SO 3.7 mph 6.9 mph 60.1% 0 in
23:04 77.7 °F 63.1 °F 29.9 in SO 4 mph 8.5 mph 61% 0 in
23:09 77.5 °F 63.1 °F 29.9 in SSO 4.1 mph 9.7 mph 61.3% 0 in
23:14 77.4 °F 63.3 °F 29.9 in SSO 4.3 mph 11.5 mph 62% 0 in
23:19 77.4 °F 63.7 °F 29.9 in SSO 4.7 mph 12 mph 62.6% 0 in
23:24 77.2 °F 63.5 °F 29.9 in SSO 6.2 mph 11 mph 63% 0 in
23:29 76.8 °F 63.7 °F 29.9 in SSO 6.2 mph 9.7 mph 63.7% 0 in
23:34 76.6 °F 63.7 °F 29.9 in SSO 5.9 mph 10 mph 64% 0 in
23:39 76.6 °F 63.5 °F 29.9 in SSO 5.8 mph 8.1 mph 64% 0 in
23:44 76.6 °F 63.7 °F 29.9 in SSO 5.2 mph 7.4 mph 64.4% 0 in
23:49 76.5 °F 63.9 °F 29.9 in SO 5 mph 7 mph 65% 0 in
23:54 76.5 °F 63.7 °F 29.9 in SO 4.3 mph 7 mph 65% 0 in
23:59 76.3 °F 63.9 °F 29.9 in SSO 4.2 mph 6.2 mph 65.6% 0 in
Murcia-Puente Tocinos, España
Compliments of Weather Underground - 3 mb

La estación de MeteoMurcia.com, publica sus datos en los siguientes proyectos:

Weather Underground PWS IMURCIAP2 Meteoclimatic www.awekas.at

W3Counter
Web Analytics